sensor_id;sensor_type;location;lat;lon;timestamp;pressure;altitude;pressure_sealevel;temperature;humidity
75543;BME280;64129;53.508;10.476;2024-02-26T00:01:32;100008.81;;;3.42;85.32
75543;BME280;64129;53.508;10.476;2024-02-26T00:04:19;100001.72;;;3.30;85.67
75543;BME280;64129;53.508;10.476;2024-02-26T00:07:00;100007.88;;;3.38;85.65
75543;BME280;64129;53.508;10.476;2024-02-26T00:09:30;100002.41;;;3.14;86.15
75543;BME280;64129;53.508;10.476;2024-02-26T00:11:57;100000.75;;;3.20;85.62
75543;BME280;64129;53.508;10.476;2024-02-26T00:14:38;100007.34;;;2.97;86.47
75543;BME280;64129;53.508;10.476;2024-02-26T00:17:07;100002.34;;;3.11;85.31
75543;BME280;64129;53.508;10.476;2024-02-26T00:19:35;100005.88;;;3.16;85.10
75543;BME280;64129;53.508;10.476;2024-02-26T00:22:10;100007.59;;;3.17;84.61
75543;BME280;64129;53.508;10.476;2024-02-26T00:24:44;100011.53;;;2.86;85.90
75543;BME280;64129;53.508;10.476;2024-02-26T00:27:11;100010.53;;;2.79;85.81
75543;BME280;64129;53.508;10.476;2024-02-26T00:29:58;100007.34;;;2.98;84.79
75543;BME280;64129;53.508;10.476;2024-02-26T00:32:25;100010.53;;;2.79;85.48
75543;BME280;64129;53.508;10.476;2024-02-26T00:34:58;100004.53;;;2.80;84.87
75543;BME280;64129;53.508;10.476;2024-02-26T00:37:25;100002.69;;;2.74;84.57
75543;BME280;64129;53.508;10.476;2024-02-26T00:39:55;100009.38;;;2.59;85.49
75543;BME280;64129;53.508;10.476;2024-02-26T00:42:22;100010.47;;;2.74;84.63
75543;BME280;64129;53.508;10.476;2024-02-26T00:44:54;100008.25;;;2.41;86.38
75543;BME280;64129;53.508;10.476;2024-02-26T00:47:23;100005.06;;;2.58;85.32
75543;BME280;64129;53.508;10.476;2024-02-26T00:50:12;100006.56;;;2.43;85.80
75543;BME280;64129;53.508;10.476;2024-02-26T00:52:39;100018.03;;;2.61;84.80
75543;BME280;64129;53.508;10.476;2024-02-26T00:55:23;100017.00;;;2.49;84.92
75543;BME280;64129;53.508;10.476;2024-02-26T00:57:50;100005.84;;;2.52;84.55
75543;BME280;64129;53.508;10.476;2024-02-26T01:00:22;100017.56;;;2.30;85.68
75543;BME280;64129;53.508;10.476;2024-02-26T01:03:06;100011.75;;;2.43;85.36
75543;BME280;64129;53.508;10.476;2024-02-26T01:05:51;100010.91;;;2.46;84.41
75543;BME280;64129;53.508;10.476;2024-02-26T01:08:32;100019.09;;;2.19;85.61
75543;BME280;64129;53.508;10.476;2024-02-26T01:11:13;100019.75;;;2.06;86.29
75543;BME280;64129;53.508;10.476;2024-02-26T01:13:45;100017.47;;;1.77;86.91
75543;BME280;64129;53.508;10.476;2024-02-26T01:16:19;100014.69;;;2.13;85.83
75543;BME280;64129;53.508;10.476;2024-02-26T01:18:52;100017.28;;;1.68;87.07
75543;BME280;64129;53.508;10.476;2024-02-26T01:21:27;100020.44;;;1.97;86.15
75543;BME280;64129;53.508;10.476;2024-02-26T01:23:58;100022.13;;;1.95;86.12
75543;BME280;64129;53.508;10.476;2024-02-26T01:26:28;100017.84;;;1.97;86.09
75543;BME280;64129;53.508;10.476;2024-02-26T01:28:55;100015.88;;;1.84;86.08
75543;BME280;64129;53.508;10.476;2024-02-26T01:31:33;100021.25;;;1.94;85.63
75543;BME280;64129;53.508;10.476;2024-02-26T01:34:19;100022.34;;;2.06;85.40
75543;BME280;64129;53.508;10.476;2024-02-26T01:36:47;100023.91;;;1.99;85.27
75543;BME280;64129;53.508;10.476;2024-02-26T01:39:14;100016.13;;;1.96;85.48
75543;BME280;64129;53.508;10.476;2024-02-26T01:41:41;100021.78;;;1.76;85.84
75543;BME280;64129;53.508;10.476;2024-02-26T01:44:15;100018.72;;;1.96;85.43
75543;BME280;64129;53.508;10.476;2024-02-26T01:46:45;100021.13;;;1.87;85.33
75543;BME280;64129;53.508;10.476;2024-02-26T01:49:15;100018.88;;;1.60;86.32
75543;BME280;64129;53.508;10.476;2024-02-26T01:51:55;100023.50;;;1.76;86.13
75543;BME280;64129;53.508;10.476;2024-02-26T01:54:37;100013.13;;;1.76;85.68
75543;BME280;64129;53.508;10.476;2024-02-26T01:57:08;100016.66;;;1.78;85.20
75543;BME280;64129;53.508;10.476;2024-02-26T01:59:36;100020.03;;;1.75;85.38
75543;BME280;64129;53.508;10.476;2024-02-26T02:02:25;100015.81;;;1.79;85.16
75543;BME280;64129;53.508;10.476;2024-02-26T02:04:56;100020.06;;;1.77;84.64
75543;BME280;64129;53.508;10.476;2024-02-26T02:07:31;100027.34;;;1.52;86.90
75543;BME280;64129;53.508;10.476;2024-02-26T02:10:01;100021.00;;;1.37;86.93
75543;BME280;64129;53.508;10.476;2024-02-26T02:12:48;100025.00;;;1.63;85.67
75543;BME280;64129;53.508;10.476;2024-02-26T02:15:22;100024.16;;;1.66;85.17
75543;BME280;64129;53.508;10.476;2024-02-26T02:17:53;100029.81;;;1.46;86.03
75543;BME280;64129;53.508;10.476;2024-02-26T02:20:34;100027.44;;;1.57;85.86
75543;BME280;64129;53.508;10.476;2024-02-26T02:23:03;100024.06;;;1.60;85.75
75543;BME280;64129;53.508;10.476;2024-02-26T02:25:35;100024.47;;;1.39;86.01
75543;BME280;64129;53.508;10.476;2024-02-26T02:28:14;100019.38;;;1.40;86.23
75543;BME280;64129;53.508;10.476;2024-02-26T02:30:48;100025.31;;;1.36;86.65
75543;BME280;64129;53.508;10.476;2024-02-26T02:33:40;100027.91;;;1.36;86.27
75543;BME280;64129;53.508;10.476;2024-02-26T02:36:13;100024.53;;;1.40;85.96
75543;BME280;64129;53.508;10.476;2024-02-26T02:38:49;100029.16;;;1.16;87.13
75543;BME280;64129;53.508;10.476;2024-02-26T02:41:35;100025.91;;;1.24;86.63
75543;BME280;64129;53.508;10.476;2024-02-26T02:44:02;100024.00;;;1.16;87.35
75543;BME280;64129;53.508;10.476;2024-02-26T02:46:32;100022.19;;;1.12;86.93
75543;BME280;64129;53.508;10.476;2024-02-26T02:49:09;100027.56;;;0.82;88.52
75543;BME280;64129;53.508;10.476;2024-02-26T02:51:52;100026.47;;;0.70;88.98
75543;BME280;64129;53.508;10.476;2024-02-26T02:54:24;100028.06;;;1.03;87.06
75543;BME280;64129;53.508;10.476;2024-02-26T02:56:55;100028.78;;;0.97;87.45
75543;BME280;64129;53.508;10.476;2024-02-26T02:59:25;100037.06;;;0.83;87.47
75543;BME280;64129;53.508;10.476;2024-02-26T03:01:59;100030.84;;;0.74;88.03
75543;BME280;64129;53.508;10.476;2024-02-26T03:04:32;100034.56;;;0.87;87.27
75543;BME280;64129;53.508;10.476;2024-02-26T03:07:07;100029.50;;;0.92;86.83
75543;BME280;64129;53.508;10.476;2024-02-26T03:09:42;100037.31;;;0.93;86.62
75543;BME280;64129;53.508;10.476;2024-02-26T03:12:23;100039.16;;;0.99;86.31
75543;BME280;64129;53.508;10.476;2024-02-26T03:14:50;100042.41;;;0.90;87.60
75543;BME280;64129;53.508;10.476;2024-02-26T03:17:18;100043.72;;;0.37;89.60
75543;BME280;64129;53.508;10.476;2024-02-26T03:19:46;100041.66;;;0.58;88.25
75543;BME280;64129;53.508;10.476;2024-02-26T03:22:21;100054.47;;;0.55;88.46
75543;BME280;64129;53.508;10.476;2024-02-26T03:24:49;100053.69;;;0.56;89.35
75543;BME280;64129;53.508;10.476;2024-02-26T03:27:16;100052.72;;;0.89;87.53
75543;BME280;64129;53.508;10.476;2024-02-26T03:29:57;100059.25;;;0.74;88.20
75543;BME280;64129;53.508;10.476;2024-02-26T03:32:24;100065.34;;;0.42;88.72
75543;BME280;64129;53.508;10.476;2024-02-26T03:35:00;100061.13;;;0.45;88.30
75543;BME280;64129;53.508;10.476;2024-02-26T03:37:43;100059.72;;;0.57;88.49
75543;BME280;64129;53.508;10.476;2024-02-26T03:40:13;100062.22;;;0.55;88.54
75543;BME280;64129;53.508;10.476;2024-02-26T03:42:47;100055.97;;;0.45;88.96
75543;BME280;64129;53.508;10.476;2024-02-26T03:45:14;100064.38;;;0.73;87.76
75543;BME280;64129;53.508;10.476;2024-02-26T03:47:53;100069.41;;;0.32;89.56
75543;BME280;64129;53.508;10.476;2024-02-26T03:50:39;100067.72;;;0.69;88.17
75543;BME280;64129;53.508;10.476;2024-02-26T03:53:10;100064.88;;;0.57;87.71
75543;BME280;64129;53.508;10.476;2024-02-26T03:55:46;100067.56;;;0.61;87.92
75543;BME280;64129;53.508;10.476;2024-02-26T03:58:25;100073.66;;;0.30;88.61
75543;BME280;64129;53.508;10.476;2024-02-26T04:01:27;100086.16;;;0.48;88.39
75543;BME280;64129;53.508;10.476;2024-02-26T04:04:15;100095.06;;;0.26;88.64
75543;BME280;64129;53.508;10.476;2024-02-26T04:06:48;100101.09;;;0.27;89.25
75543;BME280;64129;53.508;10.476;2024-02-26T04:09:18;100105.31;;;0.56;87.82
75543;BME280;64129;53.508;10.476;2024-02-26T04:11:55;100112.00;;;0.16;88.69
75543;BME280;64129;53.508;10.476;2024-02-26T04:14:22;100113.84;;;-0.11;89.27
75543;BME280;64129;53.508;10.476;2024-02-26T04:17:06;100119.81;;;-0.14;90.46
75543;BME280;64129;53.508;10.476;2024-02-26T04:19:42;100125.78;;;0.17;88.49
75543;BME280;64129;53.508;10.476;2024-02-26T04:22:13;100125.50;;;0.38;88.32
75543;BME280;64129;53.508;10.476;2024-02-26T04:24:47;100132.81;;;0.22;88.75
75543;BME280;64129;53.508;10.476;2024-02-26T04:27:30;100133.94;;;0.32;87.79
75543;BME280;64129;53.508;10.476;2024-02-26T04:29:57;100131.88;;;0.19;89.44
75543;BME280;64129;53.508;10.476;2024-02-26T04:32:27;100141.94;;;0.10;89.55
75543;BME280;64129;53.508;10.476;2024-02-26T04:34:55;100150.59;;;0.12;89.82
75543;BME280;64129;53.508;10.476;2024-02-26T04:37:25;100155.59;;;0.06;90.34
75543;BME280;64129;53.508;10.476;2024-02-26T04:40:01;100154.97;;;0.14;89.05
75543;BME280;64129;53.508;10.476;2024-02-26T04:42:55;100153.34;;;0.18;88.90
75543;BME280;64129;53.508;10.476;2024-02-26T04:45:25;100155.63;;;0.39;88.10
75543;BME280;64129;53.508;10.476;2024-02-26T04:47:55;100168.19;;;0.27;88.73
75543;BME280;64129;53.508;10.476;2024-02-26T04:50:31;100164.53;;;-0.13;89.64
75543;BME280;64129;53.508;10.476;2024-02-26T04:53:02;100160.88;;;0.10;89.32
75543;BME280;64129;53.508;10.476;2024-02-26T04:55:40;100172.41;;;0.23;88.66
75543;BME280;64129;53.508;10.476;2024-02-26T04:58:07;100171.00;;;0.04;89.21
75543;BME280;64129;53.508;10.476;2024-02-26T05:00:34;100168.53;;;0.07;89.78
75543;BME280;64129;53.508;10.476;2024-02-26T05:03:24;100168.94;;;0.22;88.53
75543;BME280;64129;53.508;10.476;2024-02-26T05:05:53;100178.34;;;0.19;89.19
75543;BME280;64129;53.508;10.476;2024-02-26T05:08:20;100177.28;;;-0.18;90.18
75543;BME280;64129;53.508;10.476;2024-02-26T05:10:51;100180.78;;;0.14;88.91
75543;BME280;64129;53.508;10.476;2024-02-26T05:13:24;100182.97;;;0.32;88.99
75543;BME280;64129;53.508;10.476;2024-02-26T05:15:57;100175.53;;;0.11;89.48
75543;BME280;64129;53.508;10.476;2024-02-26T05:18:30;100180.13;;;-0.09;91.38
75543;BME280;64129;53.508;10.476;2024-02-26T05:20:57;100180.22;;;0.26;89.38
75543;BME280;64129;53.508;10.476;2024-02-26T05:23:26;100185.31;;;-0.07;90.51
75543;BME280;64129;53.508;10.476;2024-02-26T05:25:53;100183.09;;;0.05;90.05
75543;BME280;64129;53.508;10.476;2024-02-26T05:28:23;100184.91;;;-0.21;90.83
75543;BME280;64129;53.508;10.476;2024-02-26T05:30:53;100191.59;;;0.01;89.95
75543;BME280;64129;53.508;10.476;2024-02-26T05:33:44;100194.63;;;0.18;89.22
75543;BME280;64129;53.508;10.476;2024-02-26T05:36:24;100194.84;;;0.25;88.62
75543;BME280;64129;53.508;10.476;2024-02-26T05:39:19;100196.16;;;0.11;89.99
75543;BME280;64129;53.508;10.476;2024-02-26T05:41:46;100200.50;;;0.12;88.92
75543;BME280;64129;53.508;10.476;2024-02-26T05:44:20;100194.72;;;0.21;88.28
75543;BME280;64129;53.508;10.476;2024-02-26T05:46:49;100197.50;;;-0.02;89.64
75543;BME280;64129;53.508;10.476;2024-02-26T05:49:19;100203.78;;;0.07;89.97
75543;BME280;64129;53.508;10.476;2024-02-26T05:51:49;100201.63;;;0.22;89.01
75543;BME280;64129;53.508;10.476;2024-02-26T05:54:16;100210.50;;;0.02;89.78
75543;BME280;64129;53.508;10.476;2024-02-26T05:56:49;100209.16;;;0.14;89.31
75543;BME280;64129;53.508;10.476;2024-02-26T05:59:16;100215.88;;;0.09;89.36
75543;BME280;64129;53.508;10.476;2024-02-26T06:01:51;100207.09;;;0.03;89.13
75543;BME280;64129;53.508;10.476;2024-02-26T06:04:26;100215.25;;;0.18;89.47
75543;BME280;64129;53.508;10.476;2024-02-26T06:07:05;100218.44;;;0.09;88.70
75543;BME280;64129;53.508;10.476;2024-02-26T06:09:35;100218.44;;;0.09;89.17
75543;BME280;64129;53.508;10.476;2024-02-26T06:12:21;100223.84;;;-0.13;90.26
75543;BME280;64129;53.508;10.476;2024-02-26T06:14:49;100229.59;;;0.08;89.97
75543;BME280;64129;53.508;10.476;2024-02-26T06:17:24;100227.03;;;-0.22;91.05
75543;BME280;64129;53.508;10.476;2024-02-26T06:19:54;100229.16;;;-0.07;90.64
75543;BME280;64129;53.508;10.476;2024-02-26T06:22:27;100234.56;;;0.01;90.89
75543;BME280;64129;53.508;10.476;2024-02-26T06:25:06;100231.31;;;0.08;90.57
75543;BME280;64129;53.508;10.476;2024-02-26T06:27:36;100233.19;;;0.13;91.10
75543;BME280;64129;53.508;10.476;2024-02-26T06:30:20;100237.16;;;0.01;91.20
75543;BME280;64129;53.508;10.476;2024-02-26T06:33:01;100237.84;;;0.25;90.43
75543;BME280;64129;53.508;10.476;2024-02-26T06:35:34;100238.59;;;0.21;90.91
75543;BME280;64129;53.508;10.476;2024-02-26T06:38:01;100237.84;;;0.25;92.21
75543;BME280;64129;53.508;10.476;2024-02-26T06:40:44;100243.13;;;0.30;92.44
75543;BME280;64129;53.508;10.476;2024-02-26T06:43:29;100235.44;;;0.31;91.63
75543;BME280;64129;53.508;10.476;2024-02-26T06:45:56;100240.97;;;0.45;91.84
75543;BME280;64129;53.508;10.476;2024-02-26T06:48:27;100239.75;;;0.32;92.85
75543;BME280;64129;53.508;10.476;2024-02-26T06:51:02;100246.34;;;0.22;93.25
75543;BME280;64129;53.508;10.476;2024-02-26T06:53:32;100251.69;;;0.59;91.39
75543;BME280;64129;53.508;10.476;2024-02-26T06:55:59;100252.66;;;0.32;93.37
75543;BME280;64129;53.508;10.476;2024-02-26T06:58:38;100259.31;;;0.54;92.74
75543;BME280;64129;53.508;10.476;2024-02-26T07:01:05;100256.94;;;0.62;92.25
75543;BME280;64129;53.508;10.476;2024-02-26T07:03:32;100259.41;;;0.57;93.03
75543;BME280;64129;53.508;10.476;2024-02-26T07:06:02;100261.34;;;0.66;92.75
75543;BME280;64129;53.508;10.476;2024-02-26T07:08:32;100268.38;;;0.71;93.16
75543;BME280;64129;53.508;10.476;2024-02-26T07:10:59;100268.25;;;0.67;93.81
75543;BME280;64129;53.508;10.476;2024-02-26T07:13:26;100269.41;;;0.78;91.79
75543;BME280;64129;53.508;10.476;2024-02-26T07:15:53;100266.78;;;0.75;93.18
75543;BME280;64129;53.508;10.476;2024-02-26T07:18:41;100270.34;;;0.80;93.04
75543;BME280;64129;53.508;10.476;2024-02-26T07:21:13;100273.84;;;0.82;92.86
75543;BME280;64129;53.508;10.476;2024-02-26T07:23:48;100277.25;;;0.81;93.16
75543;BME280;64129;53.508;10.476;2024-02-26T07:26:34;100277.25;;;0.81;94.25
75543;BME280;64129;53.508;10.476;2024-02-26T07:29:03;100280.09;;;0.90;93.22
75543;BME280;64129;53.508;10.476;2024-02-26T07:31:47;100292.44;;;1.02;93.52
75543;BME280;64129;53.508;10.476;2024-02-26T07:34:16;100293.72;;;1.18;92.52
75543;BME280;64129;53.508;10.476;2024-02-26T07:36:57;100294.09;;;1.33;91.82
75543;BME280;64129;53.508;10.476;2024-02-26T07:39:30;100295.19;;;1.08;93.79
75543;BME280;64129;53.508;10.476;2024-02-26T07:41:57;100294.44;;;1.12;94.02
75543;BME280;64129;53.508;10.476;2024-02-26T07:44:25;100299.44;;;1.06;94.99
75543;BME280;64129;53.508;10.476;2024-02-26T07:46:58;100303.78;;;1.40;93.18
75543;BME280;64129;53.508;10.476;2024-02-26T07:49:27;100306.69;;;1.21;94.33
75543;BME280;64129;53.508;10.476;2024-02-26T07:51:56;100315.53;;;1.29;94.92
75543;BME280;64129;53.508;10.476;2024-02-26T07:54:30;100311.41;;;1.36;94.69
75543;BME280;64129;53.508;10.476;2024-02-26T07:56:59;100320.50;;;1.55;93.66
75543;BME280;64129;53.508;10.476;2024-02-26T07:59:36;100320.84;;;1.68;93.05
75543;BME280;64129;53.508;10.476;2024-02-26T08:02:14;100329.38;;;1.66;93.41
75543;BME280;64129;53.508;10.476;2024-02-26T08:04:47;100324.31;;;1.70;93.04
75543;BME280;64129;53.508;10.476;2024-02-26T08:07:16;100323.13;;;1.92;92.77
75543;BME280;64129;53.508;10.476;2024-02-26T08:09:48;100330.00;;;1.92;93.04
75543;BME280;64129;53.508;10.476;2024-02-26T08:12:38;100325.00;;;1.99;93.23
75543;BME280;64129;53.508;10.476;2024-02-26T08:15:08;100331.97;;;2.02;92.76
75543;BME280;64129;53.508;10.476;2024-02-26T08:17:47;100315.69;;;6.54;86.53
75543;BME280;64129;53.508;10.476;2024-02-26T08:20:16;100322.53;;;3.34;88.24
75543;BME280;64129;53.508;10.476;2024-02-26T08:22:55;100331.78;;;2.74;90.36
75543;BME280;64129;53.508;10.476;2024-02-26T08:25:27;100337.34;;;2.50;91.55
75543;BME280;64129;53.508;10.476;2024-02-26T08:28:00;100339.25;;;2.59;91.83
75543;BME280;64129;53.508;10.476;2024-02-26T08:30:27;100334.94;;;2.60;91.57
75543;BME280;64129;53.508;10.476;2024-02-26T08:32:56;100342.28;;;2.40;92.83
75543;BME280;64129;53.508;10.476;2024-02-26T08:35:27;100331.09;;;2.42;93.38
75543;BME280;64129;53.508;10.476;2024-02-26T08:37:54;100336.44;;;2.48;93.28
75543;BME280;64129;53.508;10.476;2024-02-26T08:40:21;100340.88;;;2.54;93.16
75543;BME280;64129;53.508;10.476;2024-02-26T08:42:51;100349.03;;;2.74;92.52
75543;BME280;64129;53.508;10.476;2024-02-26T08:45:18;100350.84;;;2.76;92.89
75543;BME280;64129;53.508;10.476;2024-02-26T08:47:45;100352.56;;;2.76;93.45
75543;BME280;64129;53.508;10.476;2024-02-26T08:50:14;100359.41;;;2.74;93.12
75543;BME280;64129;53.508;10.476;2024-02-26T08:52:45;100362.34;;;2.89;92.26
75543;BME280;64129;53.508;10.476;2024-02-26T08:55:20;100359.00;;;2.96;92.10
75543;BME280;64129;53.508;10.476;2024-02-26T08:57:56;100359.75;;;2.91;92.91
75543;BME280;64129;53.508;10.476;2024-02-26T09:00:23;100363.50;;;3.05;92.62
75543;BME280;64129;53.508;10.476;2024-02-26T09:02:50;100356.59;;;3.05;92.34
75543;BME280;64129;53.508;10.476;2024-02-26T09:05:17;100361.25;;;3.25;91.95
75543;BME280;64129;53.508;10.476;2024-02-26T09:07:46;100364.72;;;3.24;92.31
75543;BME280;64129;53.508;10.476;2024-02-26T09:10:15;100364.94;;;3.36;91.98
75543;BME280;64129;53.508;10.476;2024-02-26T09:12:45;100363.47;;;3.50;91.43
75543;BME280;64129;53.508;10.476;2024-02-26T09:15:12;100366.72;;;3.40;93.39
75543;BME280;64129;53.508;10.476;2024-02-26T09:17:42;100361.91;;;3.60;92.63
75543;BME280;64129;53.508;10.476;2024-02-26T09:20:15;100366.53;;;3.78;91.24
75543;BME280;64129;53.508;10.476;2024-02-26T09:22:41;100372.47;;;3.72;91.62
75543;BME280;64129;53.508;10.476;2024-02-26T09:25:09;100370.72;;;3.70;92.56
75543;BME280;64129;53.508;10.476;2024-02-26T09:27:36;100369.94;;;3.77;92.45
75543;BME280;64129;53.508;10.476;2024-02-26T09:30:04;100372.75;;;3.89;91.55
75543;BME280;64129;53.508;10.476;2024-02-26T09:32:31;100372.97;;;4.01;92.11
75543;BME280;64129;53.508;10.476;2024-02-26T09:35:04;100373.03;;;4.06;90.37
75543;BME280;64129;53.508;10.476;2024-02-26T09:37:36;100378.25;;;4.09;90.49
75543;BME280;64129;53.508;10.476;2024-02-26T09:40:07;100382.38;;;3.96;92.57
75543;BME280;64129;53.508;10.476;2024-02-26T09:42:37;100383.59;;;4.17;91.19
75543;BME280;64129;53.508;10.476;2024-02-26T09:45:21;100382.84;;;4.27;91.25
75543;BME280;64129;53.508;10.476;2024-02-26T09:47:58;100389.94;;;4.37;91.28
75543;BME280;64129;53.508;10.476;2024-02-26T09:50:33;100396.94;;;4.43;91.02
75543;BME280;64129;53.508;10.476;2024-02-26T09:53:08;100382.56;;;4.68;89.87
75543;BME280;64129;53.508;10.476;2024-02-26T09:55:39;100388.31;;;4.45;89.92
75543;BME280;64129;53.508;10.476;2024-02-26T09:58:14;100386.59;;;4.47;91.67
75543;BME280;64129;53.508;10.476;2024-02-26T10:00:56;100388.19;;;4.36;90.68
75543;BME280;64129;53.508;10.476;2024-02-26T10:03:48;100390.16;;;4.52;90.47
75543;BME280;64129;53.508;10.476;2024-02-26T10:06:29;100393.94;;;4.76;89.93
75543;BME280;64129;53.508;10.476;2024-02-26T10:08:57;100386.09;;;4.73;89.48
75543;BME280;64129;53.508;10.476;2024-02-26T10:11:46;100397.38;;;4.73;90.42
75543;BME280;64129;53.508;10.476;2024-02-26T10:14:17;100397.72;;;4.99;89.62
75543;BME280;64129;53.508;10.476;2024-02-26T10:16:44;100405.41;;;4.93;89.53
75543;BME280;64129;53.508;10.476;2024-02-26T10:19:28;100406.28;;;4.92;89.54
75543;BME280;64129;53.508;10.476;2024-02-26T10:22:16;100407.34;;;5.09;88.69
75543;BME280;64129;53.508;10.476;2024-02-26T10:24:48;100407.41;;;5.16;88.21
75543;BME280;64129;53.508;10.476;2024-02-26T10:27:16;100409.31;;;5.27;88.59
75543;BME280;64129;53.508;10.476;2024-02-26T10:29:43;100408.38;;;5.24;87.71
75543;BME280;64129;53.508;10.476;2024-02-26T10:32:10;100412.03;;;5.40;87.91
75543;BME280;64129;53.508;10.476;2024-02-26T10:34:40;100413.59;;;5.24;87.45
75543;BME280;64129;53.508;10.476;2024-02-26T10:37:10;100415.59;;;5.49;86.76
75543;BME280;64129;53.508;10.476;2024-02-26T10:39:46;100417.16;;;5.32;88.10
75543;BME280;64129;53.508;10.476;2024-02-26T10:42:16;100423.38;;;5.48;87.68
75543;BME280;64129;53.508;10.476;2024-02-26T10:44:49;100425.22;;;5.58;87.17
75543;BME280;64129;53.508;10.476;2024-02-26T10:47:19;100428.06;;;5.81;87.83
75543;BME280;64129;53.508;10.476;2024-02-26T10:49:52;100429.66;;;5.67;86.46
75543;BME280;64129;53.508;10.476;2024-02-26T10:52:23;100436.81;;;5.89;86.12
75543;BME280;64129;53.508;10.476;2024-02-26T10:55:04;100435.78;;;5.73;85.93
75543;BME280;64129;53.508;10.476;2024-02-26T10:57:39;100431.78;;;6.04;86.47
75543;BME280;64129;53.508;10.476;2024-02-26T11:00:40;100431.88;;;6.20;86.69
75543;BME280;64129;53.508;10.476;2024-02-26T11:03:18;100430.22;;;6.28;86.55
75543;BME280;64129;53.508;10.476;2024-02-26T11:05:52;100431.81;;;6.07;85.50
75543;BME280;64129;53.508;10.476;2024-02-26T11:08:39;100434.66;;;6.41;84.76
75543;BME280;64129;53.508;10.476;2024-02-26T11:11:26;100435.53;;;6.43;83.33
75543;BME280;64129;53.508;10.476;2024-02-26T11:14:23;100428.75;;;6.71;83.44
75543;BME280;64129;53.508;10.476;2024-02-26T11:16:56;100427.94;;;6.77;83.75
75543;BME280;64129;53.508;10.476;2024-02-26T11:19:35;100427.13;;;6.88;84.46
75543;BME280;64129;53.508;10.476;2024-02-26T11:22:22;100428.88;;;6.93;82.34
75543;BME280;64129;53.508;10.476;2024-02-26T11:25:14;100436.81;;;7.14;82.28
75543;BME280;64129;53.508;10.476;2024-02-26T11:28:13;100433.09;;;6.71;83.26
75543;BME280;64129;53.508;10.476;2024-02-26T11:30:47;100429.75;;;6.92;81.92
75543;BME280;64129;53.508;10.476;2024-02-26T11:33:28;100432.28;;;6.79;82.37
75543;BME280;64129;53.508;10.476;2024-02-26T11:35:58;100433.16;;;6.80;82.85
75543;BME280;64129;53.508;10.476;2024-02-26T11:38:30;100437.53;;;6.82;82.98
75543;BME280;64129;53.508;10.476;2024-02-26T11:41:11;100436.63;;;6.79;84.44
75543;BME280;64129;53.508;10.476;2024-02-26T11:44:02;100444.66;;;7.20;82.71
75543;BME280;64129;53.508;10.476;2024-02-26T11:46:40;100446.34;;;7.04;82.40
75543;BME280;64129;53.508;10.476;2024-02-26T11:49:31;100440.19;;;6.99;81.86
75543;BME280;64129;53.508;10.476;2024-02-26T11:52:16;100447.06;;;6.80;83.41
75543;BME280;64129;53.508;10.476;2024-02-26T11:54:53;100443.66;;;6.94;83.50
75543;BME280;64129;53.508;10.476;2024-02-26T11:57:40;100446.38;;;7.13;82.04
75543;BME280;64129;53.508;10.476;2024-02-26T12:00:17;100444.63;;;7.11;82.56
75543;BME280;64129;53.508;10.476;2024-02-26T12:02:55;100446.44;;;7.35;82.62
75543;BME280;64129;53.508;10.476;2024-02-26T12:05:31;100445.59;;;7.33;82.09
75543;BME280;64129;53.508;10.476;2024-02-26T12:08:07;100448.13;;;7.19;82.69
75543;BME280;64129;53.508;10.476;2024-02-26T12:10:41;100443.72;;;7.00;82.49
75543;BME280;64129;53.508;10.476;2024-02-26T12:13:19;100456.88;;;7.32;82.33
75543;BME280;64129;53.508;10.476;2024-02-26T12:16:00;100455.13;;;7.23;81.92
75543;BME280;64129;53.508;10.476;2024-02-26T12:18:44;100461.22;;;7.28;82.06
75543;BME280;64129;53.508;10.476;2024-02-26T12:21:18;100465.53;;;7.15;82.45
75543;BME280;64129;53.508;10.476;2024-02-26T12:23:46;100466.50;;;7.42;83.08
75543;BME280;64129;53.508;10.476;2024-02-26T12:26:16;100468.28;;;7.51;82.47
75543;BME280;64129;53.508;10.476;2024-02-26T12:28:43;100473.47;;;7.48;82.14
75543;BME280;64129;53.508;10.476;2024-02-26T12:31:19;100472.50;;;7.21;82.53
75543;BME280;64129;53.508;10.476;2024-02-26T12:33:49;100477.00;;;7.60;83.24
75543;BME280;64129;53.508;10.476;2024-02-26T12:36:17;100477.78;;;7.39;83.02
75543;BME280;64129;53.508;10.476;2024-02-26T12:39:04;100483.88;;;7.34;81.95
75543;BME280;64129;53.508;10.476;2024-02-26T12:41:46;100486.56;;;7.61;81.94
75543;BME280;64129;53.508;10.476;2024-02-26T12:44:26;100482.28;;;7.83;82.07
75543;BME280;64129;53.508;10.476;2024-02-26T12:47:03;100487.50;;;7.79;82.33
75543;BME280;64129;53.508;10.476;2024-02-26T12:49:31;100484.94;;;8.03;80.26
75543;BME280;64129;53.508;10.476;2024-02-26T12:51:58;100494.47;;;7.87;80.05
75543;BME280;64129;53.508;10.476;2024-02-26T12:54:47;100496.13;;;7.59;81.30
75543;BME280;64129;53.508;10.476;2024-02-26T12:57:18;100499.75;;;8.19;80.23
75543;BME280;64129;53.508;10.476;2024-02-26T12:59:45;100498.88;;;8.25;79.87
75543;BME280;64129;53.508;10.476;2024-02-26T13:02:16;100499.81;;;8.39;79.40
75543;BME280;64129;53.508;10.476;2024-02-26T13:04:43;100501.53;;;8.51;79.07
75543;BME280;64129;53.508;10.476;2024-02-26T13:07:18;100505.88;;;8.75;78.19
75543;BME280;64129;53.508;10.476;2024-02-26T13:09:47;100510.22;;;8.84;78.02
75543;BME280;64129;53.508;10.476;2024-02-26T13:12:17;100514.59;;;8.51;78.01
75543;BME280;64129;53.508;10.476;2024-02-26T13:14:47;100521.56;;;8.74;76.77
75543;BME280;64129;53.508;10.476;2024-02-26T13:17:14;100520.69;;;8.81;76.34
75543;BME280;64129;53.508;10.476;2024-02-26T13:20:08;100525.88;;;8.99;74.57
75543;BME280;64129;53.508;10.476;2024-02-26T13:22:42;100525.00;;;9.09;75.01
75543;BME280;64129;53.508;10.476;2024-02-26T13:25:11;100526.63;;;9.45;74.15
75543;BME280;64129;53.508;10.476;2024-02-26T13:27:38;100531.16;;;8.75;76.02